< < Back
Terminal Aerodrome Forecast


Current Version              Previous Versions:   1  2  3  4  5  6  7  8  9  

Terminal Aerodrome Forecast

644
FTUS44 KBMX 021133
TAFANB
TAF
KANB 021133Z 0212/0312 04003KT P6SM SKC
     FM021500 35006KT P6SM SKC
     FM030100 00000KT P6SM SKC=

Latest METAR

778
SAUS70 KWBC 030000 RRA
MTRANB
METAR KANB 022353Z AUTO 36003KT 10SM CLR 34/10 A2987 RMK AO2 SLP105
T03390100 10350 20322 58004


USA.gov is the U.S. government's official web portal to all federal, state and local government web resources and services.